Time;durP1;ratioP1;P1;durP2;ratioP2;P2;SDS_P1;SDS_P2;PMS_P1;PMS_P2;Temp;Humidity;BMP_temperature;BMP_pressure;BME280_temperature;BME280_humidity;BME280_pressure;Samples;Min_cycle;Max_cycle;Signal;HPM_P1;HPM_P2
2019/09/28 00:00:37;;;;;;;7.750001;3.75;;;;;;;14.37;100;95173.81;;;;
2019/09/28 00:02:12;;;;;;;7.750001;3.75;;;;;;;14.37;100;95173.81;;;;
2019/09/28 00:03:14;;;;;;;7.750001;3.75;;;;;;;14.37;100;95173.81;;;;
2019/09/28 00:04:16;;;;;;;7.750001;3.75;;;;;;;14.37;100;95173.81;;;;
2019/09/28 00:05:19;;;;;;;7.750001;3.75;;;;;;;14.37;100;95173.81;;;;
2019/09/28 00:06:28;;;;;;;7.750001;3.75;;;;;;;14.37;100;95173.81;;;;
2019/09/28 00:07:30;;;;;;;7.750001;3.75;;;;;;;14.37;100;95173.81;;;;
2019/09/28 00:08:31;;;;;;;4.85;3.400001;;;;;;;14.32;99.35059;95176.89;;;;
2019/09/28 00:09:33;;;;;;;4.85;3.400001;;;;;;;14.32;99.35059;95176.89;;;;
2019/09/28 00:10:34;;;;;;;4.85;3.400001;;;;;;;14.32;99.35059;95176.89;;;;
2019/09/28 00:11:48;;;;;;;4.85;3.400001;;;;;;;14.32;99.35059;95176.89;;;;
2019/09/28 00:12:49;;;;;;;4.85;3.400001;;;;;;;14.32;99.35059;95176.89;;;;
2019/09/28 00:13:50;;;;;;;4.85;3.400001;;;;;;;14.32;99.35059;95176.89;;;;
2019/09/28 00:14:53;;;;;;;4.85;3.400001;;;;;;;14.32;99.35059;95176.89;;;;
2019/09/28 00:15:54;;;;;;;4.85;3.400001;;;;;;;14.32;99.35059;95176.89;;;;
2019/09/28 00:17:07;;;;;;;4.85;3.400001;;;;;;;14.32;99.35059;95176.89;;;;
2019/09/28 00:18:23;;;;;;;4.85;3.400001;;;;;;;14.32;99.35059;95176.89;;;;
2019/09/28 00:19:32;;;;;;;5.699999;3.7;;;;;;;14.21;99.07715;95190.23;;;;
2019/09/28 00:21:36;;;;;;;6.250001;3.8;;;;;;;14.26;100;95194.33;;;;
2019/09/28 00:22:37;;;;;;;6.250001;3.8;;;;;;;14.26;100;95194.33;;;;
2019/09/28 00:23:38;;;;;;;6.250001;3.8;;;;;;;14.26;100;95194.33;;;;
2019/09/28 00:24:39;;;;;;;6.250001;3.8;;;;;;;14.26;100;95194.33;;;;
2019/09/28 00:25:41;;;;;;;6.250001;3.8;;;;;;;14.26;100;95194.33;;;;
2019/09/28 00:26:42;;;;;;;6.250001;3.8;;;;;;;14.26;100;95194.33;;;;
2019/09/28 00:27:43;;;;;;;6.250001;3.8;;;;;;;14.26;100;95194.33;;;;
2019/09/28 00:28:44;;;;;;;6.250001;3.8;;;;;;;14.26;100;95194.33;;;;
2019/09/28 00:29:46;;;;;;;6.250001;3.8;;;;;;;14.26;100;95194.33;;;;
2019/09/28 00:30:47;;;;;;;6.250001;3.8;;;;;;;14.26;100;95194.33;;;;
2019/09/28 00:31:48;;;;;;;6.250001;3.8;;;;;;;14.26;100;95194.33;;;;
2019/09/28 00:32:49;;;;;;;6.25;4.45;;;;;;;14.17;99.94922;95194.95;;;;
2019/09/28 00:33:50;;;;;;;6.25;4.45;;;;;;;14.17;99.94922;95194.95;;;;
2019/09/28 00:34:51;;;;;;;6.25;4.45;;;;;;;14.17;99.94922;95194.95;;;;
2019/09/28 00:35:52;;;;;;;6.25;4.45;;;;;;;14.17;99.94922;95194.95;;;;
2019/09/28 00:36:54;;;;;;;6.25;4.45;;;;;;;14.17;99.94922;95194.95;;;;
2019/09/28 00:37:55;;;;;;;6.25;4.45;;;;;;;14.17;99.94922;95194.95;;;;
2019/09/28 00:38:56;;;;;;;6.25;4.45;;;;;;;14.17;99.94922;95194.95;;;;
2019/09/28 00:39:58;;;;;;;6.25;4.45;;;;;;;14.17;99.94922;95194.95;;;;
2019/09/28 00:40:59;;;;;;;6.25;4.45;;;;;;;14.17;99.94922;95194.95;;;;
2019/09/28 00:42:00;;;;;;;6.25;4.45;;;;;;;14.17;99.94922;95194.95;;;;
2019/09/28 00:43:01;;;;;;;4.05;3.6;;;;;;;14.16;99.92578;95197.25;;;;
2019/09/28 00:44:03;;;;;;;4.05;3.6;;;;;;;14.16;99.92578;95197.25;;;;
2019/09/28 00:45:04;;;;;;;4.05;3.6;;;;;;;14.16;99.92578;95197.25;;;;
2019/09/28 00:46:07;;;;;;;4.05;3.6;;;;;;;14.16;99.92578;95197.25;;;;
2019/09/28 00:50:55;;;;;;;4.05;3.6;;;;;;;14.16;99.92578;95197.25;;;;
2019/09/28 00:52:43;;;;;;;4.05;3.6;;;;;;;14.16;99.92578;95197.25;;;;
2019/09/28 00:53:48;;;;;;;7.35;3.9;;;;;;;14.12;99.91504;95174.97;;;;
2019/09/28 00:54:50;;;;;;;7.35;3.9;;;;;;;14.12;99.91504;95174.97;;;;
2019/09/28 00:55:51;;;;;;;7.35;3.9;;;;;;;14.12;99.91504;95174.97;;;;
2019/09/28 00:56:52;;;;;;;7.15;4;;;;;;;14.17;100;95182.73;;;;
2019/09/28 00:57:53;;;;;;;7.15;4;;;;;;;14.17;100;95182.73;;;;
2019/09/28 00:58:54;;;;;;;7.15;4;;;;;;;14.17;100;95182.73;;;;
2019/09/28 00:59:56;;;;;;;7.15;4;;;;;;;14.17;100;95182.73;;;;
2019/09/28 01:01:11;;;;;;;7.15;4;;;;;;;14.17;100;95182.73;;;;
2019/09/28 01:02:46;;;;;;;7.15;4;;;;;;;14.17;100;95182.73;;;;
2019/09/28 01:03:47;;;;;;;7.15;4;;;;;;;14.17;100;95182.73;;;;
2019/09/28 01:04:48;;;;;;;7.15;4;;;;;;;14.17;100;95182.73;;;;
2019/09/28 01:05:49;;;;;;;7.15;4;;;;;;;14.17;100;95182.73;;;;
2019/09/28 01:06:51;;;;;;;7.799999;3.95;;;;;;;14.12;100;95176.33;;;;
2019/09/28 01:07:52;;;;;;;7.799999;3.95;;;;;;;14.12;100;95176.33;;;;
2019/09/28 01:08:53;;;;;;;7.799999;3.95;;;;;;;14.12;100;95176.33;;;;
2019/09/28 01:10:19;;;;;;;5.999999;3.750001;;;;;;;14.17;100;95161.83;;;;
2019/09/28 01:15:19;;;;;;;5.999999;3.750001;;;;;;;14.17;100;95161.83;;;;
2019/09/28 01:20:20;;;;;;;7.05;3.8;;;;;;;14.12;100;95151.89;;;;
2019/09/28 01:25:21;;;;;;;4.95;3.750001;;;;;;;14.16;100;95146.6;;;;
2019/09/28 01:30:21;;;;;;;4.95;3.750001;;;;;;;14.16;100;95146.6;;;;
2019/09/28 01:35:22;;;;;;;6.05;3.7;;;;;;;14.11;100;95156.08;;;;
2019/09/28 01:40:23;;;;;;;6.05;3.7;;;;;;;14.11;100;95156.08;;;;
2019/09/28 01:45:23;;;;;;;4.85;3.55;;;;;;;14.07;100;95147.22;;;;
2019/09/28 01:50:24;;;;;;;4.85;3.55;;;;;;;14.07;100;95147.22;;;;
2019/09/28 01:55:25;;;;;;;3.9;3.5;;;;;;;13.98;100;95162.36;;;;
2019/09/28 02:00:25;;;;;;;3.9;3.5;;;;;;;13.98;100;95162.36;;;;
2019/09/28 02:05:26;;;;;;;5.05;3.6;;;;;;;14;100;95170.23;;;;
2019/09/28 02:10:27;;;;;;;5.05;3.6;;;;;;;14;100;95170.23;;;;
2019/09/28 02:15:27;;;;;;;5.05;3.6;;;;;;;14;100;95170.23;;;;
2019/09/28 02:20:28;;;;;;;4.15;3.45;;;;;;;13.95;100;95169.67;;;;
2019/09/28 02:25:29;;;;;;;4.15;3.45;;;;;;;13.95;100;95169.67;;;;
2019/09/28 02:30:30;;;;;;;3.85;3.35;;;;;;;13.98;100;95195.04;;;;
2019/09/28 02:35:30;;;;;;;3.85;3.35;;;;;;;13.98;100;95195.04;;;;
2019/09/28 02:40:31;;;;;;;4.900001;3.15;;;;;;;13.93;100;95204.52;;;;
2019/09/28 02:45:31;;;;;;;4.900001;3.15;;;;;;;13.93;100;95204.52;;;;
2019/09/28 02:50:32;;;;;;;4.599999;3;;;;;;;13.95;100;95231.69;;;;
2019/09/28 02:55:33;;;;;;;4.599999;3;;;;;;;13.95;100;95231.69;;;;
2019/09/28 03:00:33;;;;;;;5.15;3.3;;;;;;;13.9;100;95239.38;;;;
2019/09/28 03:05:34;;;;;;;5.15;3.3;;;;;;;13.9;100;95239.38;;;;
2019/09/28 03:10:35;;;;;;;3.3;2.85;;;;;;;13.9;100;95251.59;;;;
2019/09/28 03:15:35;;;;;;;3.3;2.85;;;;;;;13.9;100;95251.59;;;;
2019/09/28 03:20:36;;;;;;;3.85;2.85;;;;;;;13.85;100;95268.64;;;;
2019/09/28 03:25:36;;;;;;;3.85;2.85;;;;;;;13.85;100;95268.64;;;;
2019/09/28 03:30:37;;;;;;;4.05;3;;;;;;;13.86;100;95278.96;;;;
2019/09/28 03:35:38;;;;;;;4.05;3;;;;;;;13.86;100;95278.96;;;;
2019/09/28 03:40:38;;;;;;;3.5;3.2;;;;;;;13.77;100;95275.9;;;;
2019/09/28 03:45:39;;;;;;;3.5;3.2;;;;;;;13.77;100;95275.9;;;;
2019/09/28 03:50:40;;;;;;;3.5;3.2;;;;;;;13.77;100;95275.9;;;;
2019/09/28 03:55:40;;;;;;;5.8;3.15;;;;;;;13.76;100;95278.88;;;;
2019/09/28 04:00:41;;;;;;;5.8;3.15;;;;;;;13.76;100;95278.88;;;;
2019/09/28 04:05:42;;;;;;;6.050001;3.3;;;;;;;13.67;100;95290.84;;;;
2019/09/28 04:10:42;;;;;;;6.050001;3.3;;;;;;;13.67;100;95290.84;;;;
2019/09/28 04:15:43;;;;;;;4.25;3;;;;;;;13.68;100;95296.01;;;;
2019/09/28 04:20:43;;;;;;;4.25;3;;;;;;;13.68;100;95296.01;;;;
2019/09/28 04:25:44;;;;;;;5.249999;2.95;;;;;;;13.59;100;95294.29;;;;
2019/09/28 04:30:45;;;;;;;5.249999;2.95;;;;;;;13.59;100;95294.29;;;;
2019/09/28 04:35:45;;;;;;;5.85;2.95;;;;;;;13.53;100;95300.31;;;;
2019/09/28 04:40:46;;;;;;;5.85;2.95;;;;;;;13.53;100;95300.31;;;;
2019/09/28 04:45:46;;;;;;;5.45;2.5;;;;;;;13.41;100;95302.34;;;;
2019/09/28 04:50:47;;;;;;;5.45;2.5;;;;;;;13.41;100;95302.34;;;;
2019/09/28 04:55:48;;;;;;;5.699999;3;;;;;;;13.38;100;95287.53;;;;
2019/09/28 05:00:48;;;;;;;5.699999;3;;;;;;;13.38;100;95287.53;;;;
2019/09/28 05:05:49;;;;;;;5.75;3.1;;;;;;;13.32;100;95288.11;;;;
2019/09/28 05:10:49;;;;;;;5.75;3.1;;;;;;;13.32;100;95288.11;;;;
2019/09/28 05:15:50;;;;;;;5.75;3.1;;;;;;;13.32;100;95288.11;;;;
2019/09/28 05:20:51;;;;;;;4.05;2.55;;;;;;;13.37;100;95303.91;;;;
2019/09/28 05:25:51;;;;;;;4.05;2.55;;;;;;;13.37;100;95303.91;;;;
2019/09/28 05:30:52;;;;;;;6.050001;2.5;;;;;;;13.37;100;95300.26;;;;
2019/09/28 05:35:52;;;;;;;6.050001;2.5;;;;;;;13.37;100;95300.26;;;;
2019/09/28 05:40:53;;;;;;;3.4;2.3;;;;;;;13.44;100;95296.81;;;;
2019/09/28 05:45:54;;;;;;;3.4;2.3;;;;;;;13.44;100;95296.81;;;;
2019/09/28 05:50:54;;;;;;;3.35;2.1;;;;;;;13.48;100;95300.25;;;;
2019/09/28 05:55:55;;;;;;;3.35;2.1;;;;;;;13.48;100;95300.25;;;;
2019/09/28 06:00:55;;;;;;;3;1.8;;;;;;;13.6;100;95311.36;;;;
2019/09/28 06:05:56;;;;;;;3;1.8;;;;;;;13.6;100;95311.36;;;;
2019/09/28 06:10:57;;;;;;;2.55;1.8;;;;;;;13.64;100;95315.63;;;;
2019/09/28 06:15:57;;;;;;;2.55;1.8;;;;;;;13.64;100;95315.63;;;;
2019/09/28 06:20:58;;;;;;;1.9;1.4;;;;;;;13.74;100;95315.88;;;;
2019/09/28 06:25:58;;;;;;;1.9;1.4;;;;;;;13.74;100;95315.88;;;;
2019/09/28 06:30:59;;;;;;;3.45;1.5;;;;;;;13.79;100;95314.58;;;;
2019/09/28 06:36:00;;;;;;;3.45;1.5;;;;;;;13.79;100;95314.58;;;;
2019/09/28 06:41:00;;;;;;;3.7;1.5;;;;;;;13.99;100;95319.7;;;;
2019/09/28 06:46:01;;;;;;;3.7;1.5;;;;;;;13.99;100;95319.7;;;;
2019/09/28 06:51:01;;;;;;;3.7;1.5;;;;;;;13.99;100;95319.7;;;;
2019/09/28 06:56:02;;;;;;;3.45;1.7;;;;;;;14.21;100;95333.22;;;;
2019/09/28 07:01:03;;;;;;;3.45;1.7;;;;;;;14.21;100;95333.22;;;;
2019/09/28 07:06:03;;;;;;;3.2;1.6;;;;;;;14.4;100;95333.56;;;;
2019/09/28 07:11:04;;;;;;;3.2;1.6;;;;;;;14.4;100;95333.56;;;;
2019/09/28 07:16:05;;;;;;;3.05;1.5;;;;;;;14.5;100;95342.72;;;;
2019/09/28 07:21:05;;;;;;;3.05;1.5;;;;;;;14.5;100;95342.72;;;;
2019/09/28 07:24:07;;;;;;;2.95;1.7;;;;;;;14.68;100;95352.68;;;;
2019/09/28 07:25:14;;;;;;;2.95;1.7;;;;;;;14.68;100;95352.68;;;;
2019/09/28 07:26:17;;;;;;;2.95;1.7;;;;;;;14.68;100;95352.68;;;;
2019/09/28 07:27:18;;;;;;;2.95;1.7;;;;;;;14.68;100;95352.68;;;;
2019/09/28 07:28:19;;;;;;;2.95;1.7;;;;;;;14.68;100;95352.68;;;;
2019/09/28 07:29:20;;;;;;;2.95;1.7;;;;;;;14.68;100;95352.68;;;;
2019/09/28 07:30:22;;;;;;;2.95;1.7;;;;;;;14.68;100;95352.68;;;;
2019/09/28 07:31:36;;;;;;;2.95;1.7;;;;;;;14.68;100;95352.68;;;;
2019/09/28 07:32:37;;;;;;;2.95;1.7;;;;;;;14.68;100;95352.68;;;;
2019/09/28 07:33:38;;;;;;;2.95;1.7;;;;;;;14.68;100;95352.68;;;;
2019/09/28 07:34:39;;;;;;;5.050001;2.05;;;;;;;14.83;100;95368.83;;;;
2019/09/28 07:35:40;;;;;;;5.050001;2.05;;;;;;;14.83;100;95368.83;;;;
2019/09/28 07:36:41;;;;;;;5.050001;2.05;;;;;;;14.83;100;95368.83;;;;
2019/09/28 07:37:42;;;;;;;5.050001;2.05;;;;;;;14.83;100;95368.83;;;;
2019/09/28 07:38:43;;;;;;;5.050001;2.05;;;;;;;14.83;100;95368.83;;;;
2019/09/28 07:39:45;;;;;;;5.050001;2.05;;;;;;;14.83;100;95368.83;;;;
2019/09/28 07:40:46;;;;;;;5.050001;2.05;;;;;;;14.83;100;95368.83;;;;
2019/09/28 07:41:47;;;;;;;5.050001;2.05;;;;;;;14.83;100;95368.83;;;;
2019/09/28 07:42:48;;;;;;;5.050001;2.05;;;;;;;14.83;100;95368.83;;;;
2019/09/28 07:43:49;;;;;;;5.050001;2.05;;;;;;;14.83;100;95368.83;;;;
2019/09/28 07:44:50;;;;;;;4.3;1.9;;;;;;;15.36;100;95384.58;;;;
2019/09/28 07:45:52;;;;;;;4.3;1.9;;;;;;;15.36;100;95384.58;;;;
2019/09/28 07:46:53;;;;;;;4.3;1.9;;;;;;;15.36;100;95384.58;;;;
2019/09/28 07:47:54;;;;;;;4.3;1.9;;;;;;;15.36;100;95384.58;;;;
2019/09/28 07:48:55;;;;;;;4.3;1.9;;;;;;;15.36;100;95384.58;;;;
2019/09/28 07:49:56;;;;;;;4.3;1.9;;;;;;;15.36;100;95384.58;;;;
2019/09/28 07:50:58;;;;;;;4.3;1.9;;;;;;;15.36;100;95384.58;;;;
2019/09/28 07:51:59;;;;;;;4.3;1.9;;;;;;;15.36;100;95384.58;;;;
2019/09/28 07:53:00;;;;;;;4.3;1.9;;;;;;;15.36;100;95384.58;;;;
2019/09/28 07:54:01;;;;;;;4.3;1.9;;;;;;;15.36;100;95384.58;;;;
2019/09/28 07:55:03;;;;;;;4.3;1.9;;;;;;;15.36;100;95384.58;;;;
2019/09/28 07:56:05;;;;;;;3.35;1.6;;;;;;;15.65;100;95411.16;;;;
2019/09/28 07:57:08;;;;;;;3.35;1.6;;;;;;;15.65;100;95411.16;;;;
2019/09/28 07:58:18;;;;;;;3.35;1.6;;;;;;;15.65;100;95411.16;;;;
2019/09/28 07:59:20;;;;;;;3.35;1.6;;;;;;;15.65;100;95411.16;;;;
2019/09/28 08:00:22;;;;;;;3.35;1.6;;;;;;;15.65;100;95411.16;;;;
2019/09/28 08:01:23;;;;;;;3.35;1.6;;;;;;;15.65;100;95411.16;;;;
2019/09/28 08:02:24;;;;;;;3.35;1.6;;;;;;;15.65;100;95411.16;;;;
2019/09/28 08:03:25;;;;;;;3.35;1.6;;;;;;;15.65;100;95411.16;;;;
2019/09/28 08:04:27;;;;;;;3.35;1.6;;;;;;;15.65;100;95411.16;;;;
2019/09/28 08:05:28;;;;;;;3.35;1.6;;;;;;;15.65;100;95411.16;;;;
2019/09/28 08:06:29;;;;;;;4.3;1.9;;;;;;;15.66;100;95434.19;;;;
2019/09/28 08:07:30;;;;;;;4.3;1.9;;;;;;;15.66;100;95434.19;;;;
2019/09/28 08:08:32;;;;;;;4.3;1.9;;;;;;;15.66;100;95434.19;;;;
2019/09/28 08:09:35;;;;;;;4.3;1.9;;;;;;;15.66;100;95434.19;;;;
2019/09/28 08:10:37;;;;;;;4.3;1.9;;;;;;;15.66;100;95434.19;;;;
2019/09/28 08:11:38;;;;;;;4.3;1.9;;;;;;;15.66;100;95434.19;;;;
2019/09/28 08:12:40;;;;;;;4.3;1.9;;;;;;;15.66;100;95434.19;;;;
2019/09/28 08:13:41;;;;;;;4.3;1.9;;;;;;;15.66;100;95434.19;;;;
2019/09/28 08:14:43;;;;;;;4.3;1.9;;;;;;;15.66;100;95434.19;;;;
2019/09/28 08:15:44;;;;;;;4.3;1.9;;;;;;;15.66;100;95434.19;;;;
2019/09/28 08:16:59;;;;;;;5.55;2.1;;;;;;;15.84;100;95445.99;;;;
2019/09/28 08:18:00;;;;;;;5.55;2.1;;;;;;;15.84;100;95445.99;;;;
2019/09/28 08:19:01;;;;;;;5.55;2.1;;;;;;;15.84;100;95445.99;;;;
2019/09/28 08:20:03;;;;;;;5.55;2.1;;;;;;;15.84;100;95445.99;;;;
2019/09/28 08:21:04;;;;;;;5.55;2.1;;;;;;;15.84;100;95445.99;;;;
2019/09/28 08:22:05;;;;;;;5.55;2.1;;;;;;;15.84;100;95445.99;;;;
2019/09/28 08:23:07;;;;;;;5.55;2.1;;;;;;;15.84;100;95445.99;;;;
2019/09/28 08:24:08;;;;;;;5.55;2.1;;;;;;;15.84;100;95445.99;;;;
2019/09/28 08:25:09;;;;;;;5.55;2.1;;;;;;;15.84;100;95445.99;;;;
2019/09/28 08:26:10;;;;;;;5.55;2.1;;;;;;;15.84;100;95445.99;;;;
2019/09/28 08:27:12;;;;;;;7.2;2.25;;;;;;;16.31;100;95444.97;;;;
2019/09/28 08:28:13;;;;;;;7.2;2.25;;;;;;;16.31;100;95444.97;;;;
2019/09/28 08:30:04;;;;;;;7.2;2.25;;;;;;;16.31;100;95444.97;;;;
2019/09/28 08:31:24;;;;;;;7.2;2.25;;;;;;;16.31;100;95444.97;;;;
2019/09/28 08:32:25;;;;;;;7.2;2.25;;;;;;;16.31;100;95444.97;;;;
2019/09/28 08:33:26;;;;;;;7.2;2.25;;;;;;;16.31;100;95444.97;;;;
2019/09/28 08:34:27;;;;;;;7.2;2.25;;;;;;;16.31;100;95444.97;;;;
2019/09/28 08:35:28;;;;;;;7.2;2.25;;;;;;;16.31;100;95444.97;;;;
2019/09/28 08:36:30;;;;;;;7.2;2.25;;;;;;;16.31;100;95444.97;;;;
2019/09/28 08:37:31;;;;;;;7.2;2.25;;;;;;;16.31;100;95444.97;;;;
2019/09/28 08:38:32;;;;;;;5.45;2.2;;;;;;;18.93;95.27148;95452.7;;;;
2019/09/28 08:39:33;;;;;;;5.45;2.2;;;;;;;18.93;95.27148;95452.7;;;;
2019/09/28 08:40:39;;;;;;;4;2;;;;;;;20.38;90.40137;95445.23;;;;
2019/09/28 08:41:40;;;;;;;4;2;;;;;;;20.38;90.40137;95445.23;;;;
2019/09/28 08:42:41;;;;;;;4;2;;;;;;;20.38;90.40137;95445.23;;;;
2019/09/28 08:43:42;;;;;;;4.4;2.2;;;;;;;22.04;84.7959;95447.63;;;;
2019/09/28 08:44:43;;;;;;;4.4;2.2;;;;;;;22.04;84.7959;95447.63;;;;
2019/09/28 08:45:45;;;;;;;5.3;1.9;;;;;;;22.88;80.10352;95458.03;;;;
2019/09/28 08:46:47;;;;;;;5.3;1.9;;;;;;;22.88;80.10352;95458.03;;;;
2019/09/28 08:47:48;;;;;;;5.3;1.9;;;;;;;22.88;80.10352;95458.03;;;;
2019/09/28 08:48:49;;;;;;;4.95;2.1;;;;;;;23.85;76.29785;95452.73;;;;
2019/09/28 08:49:50;;;;;;;4.95;2.1;;;;;;;23.85;76.29785;95452.73;;;;
2019/09/28 08:50:51;;;;;;;4.95;2.1;;;;;;;23.85;76.29785;95452.73;;;;
2019/09/28 08:51:57;;;;;;;7.900001;2.1;;;;;;;24.96;72.48438;95461.54;;;;
2019/09/28 08:52:58;;;;;;;7.900001;2.1;;;;;;;24.96;72.48438;95461.54;;;;
2019/09/28 08:53:59;;;;;;;4.75;1.95;;;;;;;25.48;69.05469;95453.73;;;;
2019/09/28 08:55:01;;;;;;;4.75;1.95;;;;;;;25.48;69.05469;95453.73;;;;
2019/09/28 08:56:03;;;;;;;4.75;1.95;;;;;;;25.48;69.05469;95453.73;;;;
2019/09/28 08:57:05;;;;;;;5.4;2;;;;;;;26.15;65.98047;95460.36;;;;
2019/09/28 08:58:06;;;;;;;5.4;2;;;;;;;26.15;65.98047;95460.36;;;;
2019/09/28 08:59:07;;;;;;;4.149999;1.8;;;;;;;26.67;63.69727;95454.88;;;;
2019/09/28 09:00:09;;;;;;;4.149999;1.8;;;;;;;26.67;63.69727;95454.88;;;;
2019/09/28 09:01:43;;;;;;;4.200001;1.95;;;;;;;27.24;61.55664;95452.03;;;;
2019/09/28 09:02:44;;;;;;;4.200001;1.95;;;;;;;27.24;61.55664;95452.03;;;;
2019/09/28 09:03:46;;;;;;;4.200001;1.95;;;;;;;27.24;61.55664;95452.03;;;;
2019/09/28 09:04:47;;;;;;;2.8;1.8;;;;;;;28.34;57.32227;95455.83;;;;
2019/09/28 09:05:48;;;;;;;2.8;1.8;;;;;;;28.34;57.32227;95455.83;;;;
2019/09/28 09:06:49;;;;;;;2.8;1.8;;;;;;;28.34;57.32227;95455.83;;;;
2019/09/28 09:07:50;;;;;;;4.699999;2.2;;;;;;;29.59;53.00781;95452.62;;;;
2019/09/28 09:08:52;;;;;;;4.699999;2.2;;;;;;;29.59;53.00781;95452.62;;;;
2019/09/28 09:09:53;;;;;;;4.65;2.1;;;;;;;30.46;48.63477;95452.76;;;;
2019/09/28 09:16:06;;;;;;;3;1.8;;;;;;;31.98;44.25586;95459.48;;;;
2019/09/28 09:26:10;;;;;;;3.85;1.9;;;;;;;34.59;38.07617;95453.76;;;;
2019/09/28 09:35:25;;;;;;;3.15;1.85;;;;;;;34.97;36.10742;95449.75;;;;
2019/09/28 09:36:28;;;;;;;3.45;1.8;;;;;;;35.37;35.06348;95458.48;;;;
2019/09/28 09:37:29;;;;;;;3.45;1.8;;;;;;;35.37;35.06348;95458.48;;;;
2019/09/28 09:38:30;;;;;;;3.45;1.8;;;;;;;35.37;35.06348;95458.48;;;;
2019/09/28 09:39:31;;;;;;;2.85;1.8;;;;;;;35.58;33.48828;95453.48;;;;
2019/09/28 09:40:35;;;;;;;2.85;1.8;;;;;;;35.58;33.48828;95453.48;;;;
2019/09/28 09:42:40;;;;;;;3.3;1.85;;;;;;;35.72;32.78711;95448.13;;;;
2019/09/28 09:43:47;;;;;;;3.3;1.85;;;;;;;35.72;32.78711;95448.13;;;;
2019/09/28 09:48:55;;;;;;;3.25;2.05;;;;;;;35.97;31.64648;95445.87;;;;
2019/09/28 09:49:56;;;;;;;5;2.1;;;;;;;36.22;31.40039;95448.02;;;;
2019/09/28 09:52:01;;;;;;;5;2.1;;;;;;;36.22;31.40039;95448.02;;;;
2019/09/28 09:53:02;;;;;;;3.65;1.9;;;;;;;36.31;30.77441;95454.67;;;;
2019/09/28 09:54:38;;;;;;;3.65;1.9;;;;;;;36.31;30.77441;95454.67;;;;
2019/09/28 09:55:39;;;;;;;3.649999;1.8;;;;;;;36.41;30.45898;95451.14;;;;
2019/09/28 09:56:41;;;;;;;3.649999;1.8;;;;;;;36.41;30.45898;95451.14;;;;
2019/09/28 09:57:42;;;;;;;3.6;2.1;;;;;;;36.8;30.09375;95462.07;;;;
2019/09/28 09:58:43;;;;;;;3.6;2.1;;;;;;;36.8;30.09375;95462.07;;;;
2019/09/28 09:59:48;;;;;;;3.6;2.1;;;;;;;36.8;30.09375;95462.07;;;;
2019/09/28 10:00:49;;;;;;;3.25;1.8;;;;;;;37.32;29.58691;95468.02;;;;
2019/09/28 10:01:58;;;;;;;3.25;1.8;;;;;;;37.32;29.58691;95468.02;;;;
2019/09/28 10:02:59;;;;;;;3.25;1.8;;;;;;;37.05;29.14355;95458.72;;;;
2019/09/28 10:04:01;;;;;;;3.25;1.8;;;;;;;37.05;29.14355;95458.72;;;;
2019/09/28 10:05:11;;;;;;;3.25;1.8;;;;;;;37.05;29.14355;95458.72;;;;
2019/09/28 10:06:18;;;;;;;3.05;1.8;;;;;;;36.32;29.39746;95460.52;;;;
2019/09/28 10:07:21;;;;;;;3.05;1.8;;;;;;;36.32;29.39746;95460.52;;;;
2019/09/28 10:08:22;;;;;;;4.849999;1.9;;;;;;;35.79;29.43262;95478.08;;;;
2019/09/28 10:09:24;;;;;;;4.849999;1.9;;;;;;;35.79;29.43262;95478.08;;;;
2019/09/28 10:10:50;;;;;;;3.65;1.8;;;;;;;35.48;29.20605;95473.46;;;;
2019/09/28 10:12:55;;;;;;;3.65;1.8;;;;;;;35.48;29.20605;95473.46;;;;
2019/09/28 10:14:32;;;;;;;4.699999;1.9;;;;;;;35.8;28.73242;95474.69;;;;
2019/09/28 10:19:29;;;;;;;4.9;2.1;;;;;;;37.08;27.94922;95474.21;;;;
2019/09/28 10:20:31;;;;;;;4.9;2.1;;;;;;;37.08;27.94922;95474.21;;;;
2019/09/28 10:22:35;;;;;;;3.15;1.8;;;;;;;37.3;27.17871;95467.61;;;;
2019/09/28 10:23:36;;;;;;;3.15;1.8;;;;;;;37.3;27.17871;95467.61;;;;
2019/09/28 10:24:37;;;;;;;3.85;1.8;;;;;;;37.08;26.72852;95462.53;;;;
2019/09/28 10:32:06;;;;;;;3.55;1.8;;;;;;;35.14;27.7627;95473.75;;;;
2019/09/28 10:33:07;;;;;;;3.55;1.8;;;;;;;35.14;27.7627;95473.75;;;;
2019/09/28 10:34:59;;;;;;;2.75;1.7;;;;;;;35.14;28.07227;95467.74;;;;
2019/09/28 10:36:00;;;;;;;2.75;1.7;;;;;;;35.14;28.07227;95467.74;;;;
2019/09/28 10:37:34;;;;;;;3.45;1.65;;;;;;;34.68;27.92871;95479.51;;;;
2019/09/28 10:38:35;;;;;;;3.45;1.65;;;;;;;34.68;27.92871;95479.51;;;;
2019/09/28 10:39:36;;;;;;;3.45;1.65;;;;;;;34.68;27.92871;95479.51;;;;
2019/09/28 10:40:38;;;;;;;3.6;1.9;;;;;;;33.89;28.42969;95471.06;;;;
2019/09/28 10:42:00;;;;;;;3.6;1.9;;;;;;;33.89;28.42969;95471.06;;;;
2019/09/28 10:43:04;;;;;;;3;1.55;;;;;;;32.78;28.93164;95467.25;;;;
2019/09/28 10:45:09;;;;;;;3;1.55;;;;;;;32.78;28.93164;95467.25;;;;
2019/09/28 10:46:10;;;;;;;3.25;1.9;;;;;;;32.31;29.62988;95462.94;;;;
2019/09/28 10:48:19;;;;;;;3.15;1.6;;;;;;;32.3;29.69824;95458.95;;;;
2019/09/28 10:49:20;;;;;;;3.15;1.6;;;;;;;32.3;29.69824;95458.95;;;;
2019/09/28 10:50:22;;;;;;;3.15;1.6;;;;;;;32.3;29.69824;95458.95;;;;
2019/09/28 10:51:24;;;;;;;4.15;1.85;;;;;;;32.32;29.88086;95457.17;;;;
2019/09/28 10:52:25;;;;;;;4.15;1.85;;;;;;;32.32;29.88086;95457.17;;;;
2019/09/28 10:53:59;;;;;;;2.85;1.7;;;;;;;32.74;29.94336;95460.78;;;;
2019/09/28 10:56:27;;;;;;;2.85;1.7;;;;;;;32.74;29.94336;95460.78;;;;
2019/09/28 10:57:28;;;;;;;2.85;1.7;;;;;;;32.74;29.94336;95460.78;;;;
2019/09/28 10:58:30;;;;;;;2.85;1.7;;;;;;;32.74;29.94336;95460.78;;;;
2019/09/28 10:59:31;;;;;;;2.5;1.7;;;;;;;31.61;30.01758;95455.27;;;;
2019/09/28 11:00:32;;;;;;;2.5;1.7;;;;;;;31.61;30.01758;95455.27;;;;
2019/09/28 11:01:34;;;;;;;3.4;1.9;;;;;;;31.47;30.50781;95452.15;;;;
2019/09/28 11:02:35;;;;;;;3.4;1.9;;;;;;;31.47;30.50781;95452.15;;;;
2019/09/28 11:03:37;;;;;;;3.4;1.9;;;;;;;31.47;30.50781;95452.15;;;;
2019/09/28 11:07:47;;;;;;;4.1;1.7;;;;;;;32.32;29.74512;95449.2;;;;
2019/09/28 11:08:48;;;;;;;4.1;1.7;;;;;;;32.32;29.74512;95449.2;;;;
2019/09/28 11:09:49;;;;;;;3.15;1.7;;;;;;;31.86;30.4082;95442.43;;;;
2019/09/28 11:10:57;;;;;;;3.15;1.7;;;;;;;31.86;30.4082;95442.43;;;;
2019/09/28 11:11:59;;;;;;;3.15;1.7;;;;;;;31.86;30.4082;95442.43;;;;
2019/09/28 11:14:27;;;;;;;3;1.7;;;;;;;31.53;30.76172;95452.27;;;;
2019/09/28 11:15:28;;;;;;;2.75;1.65;;;;;;;31.08;31.33301;95450.98;;;;
2019/09/28 11:16:30;;;;;;;2.75;1.65;;;;;;;31.08;31.33301;95450.98;;;;
2019/09/28 11:17:32;;;;;;;2.9;1.8;;;;;;;30.39;31.875;95436.64;;;;
2019/09/28 11:18:33;;;;;;;2.9;1.8;;;;;;;30.39;31.875;95436.64;;;;
2019/09/28 11:19:34;;;;;;;2.9;1.8;;;;;;;30.39;31.875;95436.64;;;;
2019/09/28 11:20:35;;;;;;;2.7;1.6;;;;;;;29.82;32.53613;95434.81;;;;
2019/09/28 11:21:38;;;;;;;2.7;1.6;;;;;;;29.82;32.53613;95434.81;;;;
2019/09/28 11:22:40;;;;;;;2.7;1.6;;;;;;;29.82;32.53613;95434.81;;;;
2019/09/28 11:23:41;;;;;;;2.65;1.6;;;;;;;28.91;33.1377;95434.53;;;;
2019/09/28 11:24:43;;;;;;;2.65;1.6;;;;;;;28.91;33.1377;95434.53;;;;
2019/09/28 11:25:44;;;;;;;4.95;1.8;;;;;;;27.99;34.37695;95437.1;;;;
2019/09/28 11:27:04;;;;;;;4.95;1.8;;;;;;;27.99;34.37695;95437.1;;;;
2019/09/28 11:28:13;;;;;;;3.55;1.55;;;;;;;27.17;35.60742;95434.7;;;;
2019/09/28 11:29:14;;;;;;;3.55;1.55;;;;;;;27.17;35.60742;95434.7;;;;
2019/09/28 11:30:15;;;;;;;3.55;1.55;;;;;;;27.17;35.60742;95434.7;;;;
2019/09/28 11:31:17;;;;;;;3.35;1.8;;;;;;;26.48;36.75391;95434.66;;;;
2019/09/28 11:32:20;;;;;;;3.35;1.8;;;;;;;26.48;36.75391;95434.66;;;;
2019/09/28 11:33:21;;;;;;;3.5;1.6;;;;;;;25.89;37.67969;95425.37;;;;
2019/09/28 11:34:23;;;;;;;3.5;1.6;;;;;;;25.89;37.67969;95425.37;;;;
2019/09/28 11:35:25;;;;;;;3.5;1.6;;;;;;;25.89;37.67969;95425.37;;;;
2019/09/28 11:36:26;;;;;;;2.95;1.7;;;;;;;25.4;38.6123;95427.7;;;;
2019/09/28 11:37:28;;;;;;;2.95;1.7;;;;;;;25.4;38.6123;95427.7;;;;
2019/09/28 11:38:29;;;;;;;2.95;1.7;;;;;;;25.4;38.6123;95427.7;;;;
2019/09/28 11:39:31;;;;;;;3.55;1.75;;;;;;;24.99;39.44824;95426.9;;;;
2019/09/28 11:40:32;;;;;;;3.55;1.75;;;;;;;24.99;39.44824;95426.9;;;;
2019/09/28 11:41:33;;;;;;;4.3;1.8;;;;;;;24.48;39.7832;95416.55;;;;
2019/09/28 11:42:34;;;;;;;4.3;1.8;;;;;;;24.48;39.7832;95416.55;;;;
2019/09/28 11:43:35;;;;;;;4.3;1.8;;;;;;;24.48;39.7832;95416.55;;;;
2019/09/28 11:44:36;;;;;;;2.65;1.9;;;;;;;24.05;40.80371;95409.45;;;;
2019/09/28 11:45:38;;;;;;;2.65;1.9;;;;;;;24.05;40.80371;95409.45;;;;
2019/09/28 11:46:44;;;;;;;3.2;1.8;;;;;;;23.81;41.75195;95410.77;;;;
2019/09/28 11:47:46;;;;;;;3.2;1.8;;;;;;;23.81;41.75195;95410.77;;;;
2019/09/28 11:48:47;;;;;;;3.2;1.8;;;;;;;23.81;41.75195;95410.77;;;;
2019/09/28 11:49:49;;;;;;;4;1.9;;;;;;;23.86;42.45703;95406.08;;;;
2019/09/28 11:50:51;;;;;;;4;1.9;;;;;;;23.86;42.45703;95406.08;;;;
2019/09/28 11:51:54;;;;;;;4;1.9;;;;;;;23.86;42.45703;95406.08;;;;
2019/09/28 11:52:57;;;;;;;2.95;1.6;;;;;;;24.01;42.15918;95408.06;;;;
2019/09/28 11:53:58;;;;;;;2.95;1.6;;;;;;;24.01;42.15918;95408.06;;;;
2019/09/28 11:55:00;;;;;;;3.2;1.55;;;;;;;24.22;41.37695;95396.7;;;;
2019/09/28 11:56:01;;;;;;;3.2;1.55;;;;;;;24.22;41.37695;95396.7;;;;
2019/09/28 11:57:03;;;;;;;3.2;1.55;;;;;;;24.22;41.37695;95396.7;;;;
2019/09/28 11:58:04;;;;;;;2.5;1.7;;;;;;;24.63;41.72559;95387.67;;;;
2019/09/28 11:59:06;;;;;;;2.5;1.7;;;;;;;24.63;41.72559;95387.67;;;;
2019/09/28 12:00:58;;;;;;;3.65;1.5;;;;;;;25.06;41.21875;95385.41;;;;
2019/09/28 12:02:00;;;;;;;3.65;1.5;;;;;;;25.06;41.21875;95385.41;;;;
2019/09/28 12:03:01;;;;;;;2;1.55;;;;;;;25.74;40.59961;95388.94;;;;
2019/09/28 12:04:07;;;;;;;2;1.55;;;;;;;25.74;40.59961;95388.94;;;;
2019/09/28 12:05:09;;;;;;;2;1.55;;;;;;;25.74;40.59961;95388.94;;;;
2019/09/28 12:06:10;;;;;;;3.55;1.85;;;;;;;26.57;39.91211;95395.67;;;;